sensor_id;sensor_type;location;lat;lon;timestamp;temperature;humidity
9820;DHT22;4949;48.482;9.206;2022-12-07T00:04:18;4.90;79.10
9820;DHT22;4949;48.482;9.206;2022-12-07T00:09:21;4.90;79.00
9820;DHT22;4949;48.482;9.206;2022-12-07T00:14:21;4.90;78.90
9820;DHT22;4949;48.482;9.206;2022-12-07T00:19:25;4.80;78.90
9820;DHT22;4949;48.482;9.206;2022-12-07T00:24:28;4.90;79.10
9820;DHT22;4949;48.482;9.206;2022-12-07T00:29:28;4.90;79.10
9820;DHT22;4949;48.482;9.206;2022-12-07T00:34:32;4.80;79.40
9820;DHT22;4949;48.482;9.206;2022-12-07T00:39:35;4.80;79.30
9820;DHT22;4949;48.482;9.206;2022-12-07T00:44:35;4.80;79.40
9820;DHT22;4949;48.482;9.206;2022-12-07T00:49:36;4.90;79.40
9820;DHT22;4949;48.482;9.206;2022-12-07T00:54:40;4.80;79.40
9820;DHT22;4949;48.482;9.206;2022-12-07T00:59:40;4.80;79.30
9820;DHT22;4949;48.482;9.206;2022-12-07T01:04:41;4.80;79.30
9820;DHT22;4949;48.482;9.206;2022-12-07T01:09:42;4.80;79.20
9820;DHT22;4949;48.482;9.206;2022-12-07T01:14:43;4.80;79.30
9820;DHT22;4949;48.482;9.206;2022-12-07T01:19:43;4.80;79.50
9820;DHT22;4949;48.482;9.206;2022-12-07T01:24:44;4.60;79.50
9820;DHT22;4949;48.482;9.206;2022-12-07T01:29:47;4.70;79.70
9820;DHT22;4949;48.482;9.206;2022-12-07T01:34:48;4.70;79.50
9820;DHT22;4949;48.482;9.206;2022-12-07T01:39:52;4.70;79.40
9820;DHT22;4949;48.482;9.206;2022-12-07T01:50:21;4.70;79.00
9820;DHT22;4949;48.482;9.206;2022-12-07T01:55:26;4.80;79.30
9820;DHT22;4949;48.482;9.206;2022-12-07T02:00:29;4.70;79.30
9820;DHT22;4949;48.482;9.206;2022-12-07T02:05:31;4.70;79.30
9820;DHT22;4949;48.482;9.206;2022-12-07T02:10:33;4.70;79.30
9820;DHT22;4949;48.482;9.206;2022-12-07T02:21:02;4.70;79.40
9820;DHT22;4949;48.482;9.206;2022-12-07T02:31:55;4.60;80.40
9820;DHT22;4949;48.482;9.206;2022-12-07T02:37:06;4.60;79.80
9820;DHT22;4949;48.482;9.206;2022-12-07T02:42:17;4.60;79.70
9820;DHT22;4949;48.482;9.206;2022-12-07T02:47:24;4.70;79.90
9820;DHT22;4949;48.482;9.206;2022-12-07T02:52:27;4.70;79.70
9820;DHT22;4949;48.482;9.206;2022-12-07T03:03:10;4.70;80.00
9820;DHT22;4949;48.482;9.206;2022-12-07T03:13:45;4.60;80.30
9820;DHT22;4949;48.482;9.206;2022-12-07T03:18:55;4.70;80.10
9820;DHT22;4949;48.482;9.206;2022-12-07T03:24:08;4.70;80.10
9820;DHT22;4949;48.482;9.206;2022-12-07T03:29:19;4.70;80.40
9820;DHT22;4949;48.482;9.206;2022-12-07T03:34:30;4.70;80.50
9820;DHT22;4949;48.482;9.206;2022-12-07T03:39:44;4.70;80.50
9820;DHT22;4949;48.482;9.206;2022-12-07T03:44:50;4.70;80.00
9820;DHT22;4949;48.482;9.206;2022-12-07T03:49:55;4.60;78.70
9820;DHT22;4949;48.482;9.206;2022-12-07T04:00:15;4.60;77.00
9820;DHT22;4949;48.482;9.206;2022-12-07T04:05:19;4.60;76.40
9820;DHT22;4949;48.482;9.206;2022-12-07T04:10:22;4.60;76.70
9820;DHT22;4949;48.482;9.206;2022-12-07T04:15:23;4.60;77.40
9820;DHT22;4949;48.482;9.206;2022-12-07T04:20:26;4.50;78.60
9820;DHT22;4949;48.482;9.206;2022-12-07T04:25:29;4.50;79.30
9820;DHT22;4949;48.482;9.206;2022-12-07T04:30:30;4.50;79.50
9820;DHT22;4949;48.482;9.206;2022-12-07T04:35:31;4.60;78.80
9820;DHT22;4949;48.482;9.206;2022-12-07T04:40:34;4.60;78.30
9820;DHT22;4949;48.482;9.206;2022-12-07T04:45:35;4.50;79.50
9820;DHT22;4949;48.482;9.206;2022-12-07T04:50:40;4.40;79.80
9820;DHT22;4949;48.482;9.206;2022-12-07T04:55:41;4.30;80.00
9820;DHT22;4949;48.482;9.206;2022-12-07T05:00:44;4.30;79.60
9820;DHT22;4949;48.482;9.206;2022-12-07T05:05:45;4.30;79.00
9820;DHT22;4949;48.482;9.206;2022-12-07T05:10:48;4.30;78.40
9820;DHT22;4949;48.482;9.206;2022-12-07T05:15:54;4.40;77.50
9820;DHT22;4949;48.482;9.206;2022-12-07T05:20:54;4.40;76.30
9820;DHT22;4949;48.482;9.206;2022-12-07T05:25:55;4.50;75.30
9820;DHT22;4949;48.482;9.206;2022-12-07T05:30:59;4.30;75.40
9820;DHT22;4949;48.482;9.206;2022-12-07T05:36:00;4.30;75.10
9820;DHT22;4949;48.482;9.206;2022-12-07T05:41:06;4.20;75.90
9820;DHT22;4949;48.482;9.206;2022-12-07T05:46:07;4.10;76.00
9820;DHT22;4949;48.482;9.206;2022-12-07T05:51:08;4.10;76.30
9820;DHT22;4949;48.482;9.206;2022-12-07T05:56:09;4.00;76.50
9820;DHT22;4949;48.482;9.206;2022-12-07T06:01:10;4.00;76.50
9820;DHT22;4949;48.482;9.206;2022-12-07T06:06:15;3.90;76.90
9820;DHT22;4949;48.482;9.206;2022-12-07T06:11:16;3.90;76.40
9820;DHT22;4949;48.482;9.206;2022-12-07T06:16:35;4.00;75.80
9820;DHT22;4949;48.482;9.206;2022-12-07T06:21:35;3.80;76.40
9820;DHT22;4949;48.482;9.206;2022-12-07T06:26:36;3.90;75.40
9820;DHT22;4949;48.482;9.206;2022-12-07T06:31:38;3.90;73.50
9820;DHT22;4949;48.482;9.206;2022-12-07T06:36:41;3.80;72.00
9820;DHT22;4949;48.482;9.206;2022-12-07T06:41:42;3.60;72.00
9820;DHT22;4949;48.482;9.206;2022-12-07T06:46:43;3.50;72.20
9820;DHT22;4949;48.482;9.206;2022-12-07T06:51:46;3.40;73.50
9820;DHT22;4949;48.482;9.206;2022-12-07T06:56:49;3.30;74.00
9820;DHT22;4949;48.482;9.206;2022-12-07T07:01:50;3.30;73.70
9820;DHT22;4949;48.482;9.206;2022-12-07T07:06:51;3.30;72.20
9820;DHT22;4949;48.482;9.206;2022-12-07T07:11:52;3.10;73.40
9820;DHT22;4949;48.482;9.206;2022-12-07T07:16:52;3.10;73.70
9820;DHT22;4949;48.482;9.206;2022-12-07T07:21:55;3.10;73.70
9820;DHT22;4949;48.482;9.206;2022-12-07T07:26:56;3.00;74.40
9820;DHT22;4949;48.482;9.206;2022-12-07T07:31:56;3.00;75.40
9820;DHT22;4949;48.482;9.206;2022-12-07T07:37:00;3.00;77.00
9820;DHT22;4949;48.482;9.206;2022-12-07T07:42:03;3.00;76.60
9820;DHT22;4949;48.482;9.206;2022-12-07T07:47:04;3.20;75.70
9820;DHT22;4949;48.482;9.206;2022-12-07T07:52:05;3.10;77.00
9820;DHT22;4949;48.482;9.206;2022-12-07T07:57:06;2.90;77.40
9820;DHT22;4949;48.482;9.206;2022-12-07T08:02:14;3.00;77.10
9820;DHT22;4949;48.482;9.206;2022-12-07T08:07:17;3.10;76.60
9820;DHT22;4949;48.482;9.206;2022-12-07T08:12:17;3.10;77.30
9820;DHT22;4949;48.482;9.206;2022-12-07T08:17:22;3.10;77.50
9820;DHT22;4949;48.482;9.206;2022-12-07T08:22:23;3.10;77.50
9820;DHT22;4949;48.482;9.206;2022-12-07T08:27:24;3.30;78.00
9820;DHT22;4949;48.482;9.206;2022-12-07T08:32:27;3.30;77.80
9820;DHT22;4949;48.482;9.206;2022-12-07T08:37:28;3.40;77.70
9820;DHT22;4949;48.482;9.206;2022-12-07T08:42:31;3.50;77.70
9820;DHT22;4949;48.482;9.206;2022-12-07T08:47:44;3.50;77.90
9820;DHT22;4949;48.482;9.206;2022-12-07T08:52:52;3.60;77.50
9820;DHT22;4949;48.482;9.206;2022-12-07T08:57:59;3.60;76.40
9820;DHT22;4949;48.482;9.206;2022-12-07T09:03:03;3.70;76.50
9820;DHT22;4949;48.482;9.206;2022-12-07T09:08:04;3.70;75.80
9820;DHT22;4949;48.482;9.206;2022-12-07T09:13:05;3.90;75.20
9820;DHT22;4949;48.482;9.206;2022-12-07T09:18:06;3.90;75.20
9820;DHT22;4949;48.482;9.206;2022-12-07T09:23:06;3.90;74.80
9820;DHT22;4949;48.482;9.206;2022-12-07T09:28:07;4.10;75.10
9820;DHT22;4949;48.482;9.206;2022-12-07T09:33:08;4.00;74.90
9820;DHT22;4949;48.482;9.206;2022-12-07T09:38:12;4.10;74.90
9820;DHT22;4949;48.482;9.206;2022-12-07T09:43:21;4.30;74.20
9820;DHT22;4949;48.482;9.206;2022-12-07T09:48:30;4.40;74.20
9820;DHT22;4949;48.482;9.206;2022-12-07T09:53:38;4.50;74.40
9820;DHT22;4949;48.482;9.206;2022-12-07T09:58:41;4.60;74.10
9820;DHT22;4949;48.482;9.206;2022-12-07T10:04:21;4.50;73.50
9820;DHT22;4949;48.482;9.206;2022-12-07T10:09:25;4.60;73.00
9820;DHT22;4949;48.482;9.206;2022-12-07T10:14:29;4.50;72.30
9820;DHT22;4949;48.482;9.206;2022-12-07T10:19:35;4.70;72.20
9820;DHT22;4949;48.482;9.206;2022-12-07T10:24:39;4.70;71.20
9820;DHT22;4949;48.482;9.206;2022-12-07T10:29:50;4.80;71.10
9820;DHT22;4949;48.482;9.206;2022-12-07T10:35:22;4.80;70.30
9820;DHT22;4949;48.482;9.206;2022-12-07T10:40:34;4.90;69.00
9820;DHT22;4949;48.482;9.206;2022-12-07T10:57:00;5.20;65.80
9820;DHT22;4949;48.482;9.206;2022-12-07T11:24:18;5.20;66.40
9820;DHT22;4949;48.482;9.206;2022-12-07T11:40:57;5.50;66.00
9820;DHT22;4949;48.482;9.206;2022-12-07T11:46:15;5.60;65.70
9820;DHT22;4949;48.482;9.206;2022-12-07T11:51:21;5.80;65.10
9820;DHT22;4949;48.482;9.206;2022-12-07T11:56:25;5.70;64.90
9820;DHT22;4949;48.482;9.206;2022-12-07T12:07:21;5.60;65.50
9820;DHT22;4949;48.482;9.206;2022-12-07T12:29:06;5.80;65.40
9820;DHT22;4949;48.482;9.206;2022-12-07T12:39:31;6.00;64.30
9820;DHT22;4949;48.482;9.206;2022-12-07T13:05:30;6.20;63.90
9820;DHT22;4949;48.482;9.206;2022-12-07T13:10:35;6.10;63.80
9820;DHT22;4949;48.482;9.206;2022-12-07T13:15:46;6.20;64.30
9820;DHT22;4949;48.482;9.206;2022-12-07T13:36:52;6.30;64.70
9820;DHT22;4949;48.482;9.206;2022-12-07T13:41:58;6.30;64.60
9820;DHT22;4949;48.482;9.206;2022-12-07T13:52:28;6.30;64.80
9820;DHT22;4949;48.482;9.206;2022-12-07T13:57:34;6.30;64.50
9820;DHT22;4949;48.482;9.206;2022-12-07T14:02:36;6.30;65.00
9820;DHT22;4949;48.482;9.206;2022-12-07T14:07:52;6.40;65.30
9820;DHT22;4949;48.482;9.206;2022-12-07T14:13:03;6.30;65.30
9820;DHT22;4949;48.482;9.206;2022-12-07T14:23:38;6.20;65.30
9820;DHT22;4949;48.482;9.206;2022-12-07T14:28:44;6.20;65.50
9820;DHT22;4949;48.482;9.206;2022-12-07T14:33:47;6.20;65.50
9820;DHT22;4949;48.482;9.206;2022-12-07T14:38:52;6.10;65.80
9820;DHT22;4949;48.482;9.206;2022-12-07T14:43:56;6.10;66.20
9820;DHT22;4949;48.482;9.206;2022-12-07T14:48:59;6.20;66.40
9820;DHT22;4949;48.482;9.206;2022-12-07T14:54:00;6.20;66.40
9820;DHT22;4949;48.482;9.206;2022-12-07T14:59:00;6.50;66.60
9820;DHT22;4949;48.482;9.206;2022-12-07T15:04:01;6.20;66.40
9820;DHT22;4949;48.482;9.206;2022-12-07T15:09:05;6.10;66.50
9820;DHT22;4949;48.482;9.206;2022-12-07T15:14:06;6.10;66.90
9820;DHT22;4949;48.482;9.206;2022-12-07T15:19:14;6.20;67.10
9820;DHT22;4949;48.482;9.206;2022-12-07T15:24:16;6.20;67.20
9820;DHT22;4949;48.482;9.206;2022-12-07T15:29:17;6.10;67.30
9820;DHT22;4949;48.482;9.206;2022-12-07T15:34:20;6.20;67.70
9820;DHT22;4949;48.482;9.206;2022-12-07T15:39:21;6.10;67.70
9820;DHT22;4949;48.482;9.206;2022-12-07T15:44:24;6.00;68.10
9820;DHT22;4949;48.482;9.206;2022-12-07T15:49:44;6.00;68.20
9820;DHT22;4949;48.482;9.206;2022-12-07T15:54:45;6.00;68.60
9820;DHT22;4949;48.482;9.206;2022-12-07T15:59:45;6.00;68.80
9820;DHT22;4949;48.482;9.206;2022-12-07T16:04:51;6.00;68.90
9820;DHT22;4949;48.482;9.206;2022-12-07T16:09:53;5.90;68.80
9820;DHT22;4949;48.482;9.206;2022-12-07T16:14:53;5.90;69.00
9820;DHT22;4949;48.482;9.206;2022-12-07T16:19:54;6.00;69.30
9820;DHT22;4949;48.482;9.206;2022-12-07T16:24:55;5.90;69.60
9820;DHT22;4949;48.482;9.206;2022-12-07T16:29:56;5.90;69.60
9820;DHT22;4949;48.482;9.206;2022-12-07T16:34:56;5.90;70.00
9820;DHT22;4949;48.482;9.206;2022-12-07T16:39:59;5.90;70.20
9820;DHT22;4949;48.482;9.206;2022-12-07T16:45:01;6.00;70.30
9820;DHT22;4949;48.482;9.206;2022-12-07T16:50:02;5.90;70.30
9820;DHT22;4949;48.482;9.206;2022-12-07T16:55:03;5.80;70.30
9820;DHT22;4949;48.482;9.206;2022-12-07T17:00:04;5.80;70.60
9820;DHT22;4949;48.482;9.206;2022-12-07T17:05:06;5.80;70.70
9820;DHT22;4949;48.482;9.206;2022-12-07T17:10:09;5.70;70.70
9820;DHT22;4949;48.482;9.206;2022-12-07T17:15:10;5.70;70.60
9820;DHT22;4949;48.482;9.206;2022-12-07T17:20:24;5.70;71.20
9820;DHT22;4949;48.482;9.206;2022-12-07T17:25:27;5.80;70.90
9820;DHT22;4949;48.482;9.206;2022-12-07T17:30:30;5.70;70.70
9820;DHT22;4949;48.482;9.206;2022-12-07T17:35:33;5.60;71.00
9820;DHT22;4949;48.482;9.206;2022-12-07T17:40:34;5.60;71.30
9820;DHT22;4949;48.482;9.206;2022-12-07T17:45:39;5.50;70.80
9820;DHT22;4949;48.482;9.206;2022-12-07T17:50:42;5.50;71.80
9820;DHT22;4949;48.482;9.206;2022-12-07T17:56:04;5.40;72.40
9820;DHT22;4949;48.482;9.206;2022-12-07T18:01:08;5.30;72.40
9820;DHT22;4949;48.482;9.206;2022-12-07T18:06:46;5.30;72.40
9820;DHT22;4949;48.482;9.206;2022-12-07T18:12:15;5.30;72.20
9820;DHT22;4949;48.482;9.206;2022-12-07T18:23:12;5.30;72.60
9820;DHT22;4949;48.482;9.206;2022-12-07T18:28:13;5.30;73.00
9820;DHT22;4949;48.482;9.206;2022-12-07T18:33:35;5.30;72.80
9820;DHT22;4949;48.482;9.206;2022-12-07T18:38:43;5.20;72.90
9820;DHT22;4949;48.482;9.206;2022-12-07T18:43:44;5.20;73.10
9820;DHT22;4949;48.482;9.206;2022-12-07T18:48:45;5.20;73.20
9820;DHT22;4949;48.482;9.206;2022-12-07T18:53:47;5.20;73.60
9820;DHT22;4949;48.482;9.206;2022-12-07T18:58:52;5.30;73.10
9820;DHT22;4949;48.482;9.206;2022-12-07T19:04:16;5.30;72.80
9820;DHT22;4949;48.482;9.206;2022-12-07T19:09:19;5.50;73.30
9820;DHT22;4949;48.482;9.206;2022-12-07T19:14:33;5.30;72.70
9820;DHT22;4949;48.482;9.206;2022-12-07T19:19:41;5.20;71.70
9820;DHT22;4949;48.482;9.206;2022-12-07T19:24:47;5.20;71.10
9820;DHT22;4949;48.482;9.206;2022-12-07T19:29:49;5.40;70.40
9820;DHT22;4949;48.482;9.206;2022-12-07T19:34:53;5.20;70.30
9820;DHT22;4949;48.482;9.206;2022-12-07T19:39:55;5.20;69.70
9820;DHT22;4949;48.482;9.206;2022-12-07T19:44:56;5.20;68.90
9820;DHT22;4949;48.482;9.206;2022-12-07T19:49:56;5.10;69.10
9820;DHT22;4949;48.482;9.206;2022-12-07T19:54:57;5.00;69.70
9820;DHT22;4949;48.482;9.206;2022-12-07T19:59:58;4.90;69.80
9820;DHT22;4949;48.482;9.206;2022-12-07T20:04:59;4.90;70.00
9820;DHT22;4949;48.482;9.206;2022-12-07T20:09:59;4.80;70.20
9820;DHT22;4949;48.482;9.206;2022-12-07T20:15:00;4.70;71.20
9820;DHT22;4949;48.482;9.206;2022-12-07T20:20:04;4.60;71.30
9820;DHT22;4949;48.482;9.206;2022-12-07T20:25:05;4.60;70.20
9820;DHT22;4949;48.482;9.206;2022-12-07T20:30:07;4.60;70.30
9820;DHT22;4949;48.482;9.206;2022-12-07T20:35:10;4.60;70.60
9820;DHT22;4949;48.482;9.206;2022-12-07T20:40:13;4.60;70.40
9820;DHT22;4949;48.482;9.206;2022-12-07T20:45:14;4.60;70.40
9820;DHT22;4949;48.482;9.206;2022-12-07T20:50:15;4.50;70.50
9820;DHT22;4949;48.482;9.206;2022-12-07T20:55:16;4.90;69.40
9820;DHT22;4949;48.482;9.206;2022-12-07T21:00:19;4.70;69.30
9820;DHT22;4949;48.482;9.206;2022-12-07T21:05:22;4.60;69.00
9820;DHT22;4949;48.482;9.206;2022-12-07T21:10:23;4.50;69.10
9820;DHT22;4949;48.482;9.206;2022-12-07T21:15:24;4.40;69.10
9820;DHT22;4949;48.482;9.206;2022-12-07T21:20:27;4.40;69.80
9820;DHT22;4949;48.482;9.206;2022-12-07T21:25:30;4.50;69.00
9820;DHT22;4949;48.482;9.206;2022-12-07T21:30:31;4.40;68.60
9820;DHT22;4949;48.482;9.206;2022-12-07T21:35:32;4.40;69.10
9820;DHT22;4949;48.482;9.206;2022-12-07T21:40:32;4.40;68.80
9820;DHT22;4949;48.482;9.206;2022-12-07T21:45:33;4.40;68.80
9820;DHT22;4949;48.482;9.206;2022-12-07T21:50:39;4.30;69.60
9820;DHT22;4949;48.482;9.206;2022-12-07T21:55:43;4.40;69.00
9820;DHT22;4949;48.482;9.206;2022-12-07T22:00:44;4.30;68.90
9820;DHT22;4949;48.482;9.206;2022-12-07T22:05:45;4.30;68.30
9820;DHT22;4949;48.482;9.206;2022-12-07T22:10:48;4.30;68.60
9820;DHT22;4949;48.482;9.206;2022-12-07T22:15:51;4.30;68.70
9820;DHT22;4949;48.482;9.206;2022-12-07T22:20:52;4.30;69.30
9820;DHT22;4949;48.482;9.206;2022-12-07T22:25:52;4.30;69.10
9820;DHT22;4949;48.482;9.206;2022-12-07T22:30:53;4.30;69.10
9820;DHT22;4949;48.482;9.206;2022-12-07T22:35:54;4.30;69.50
9820;DHT22;4949;48.482;9.206;2022-12-07T22:40:55;4.30;69.10
9820;DHT22;4949;48.482;9.206;2022-12-07T22:45:58;4.30;69.00
9820;DHT22;4949;48.482;9.206;2022-12-07T22:50:59;4.40;69.40
9820;DHT22;4949;48.482;9.206;2022-12-07T22:56:01;4.50;69.60
9820;DHT22;4949;48.482;9.206;2022-12-07T23:01:09;4.40;69.50
9820;DHT22;4949;48.482;9.206;2022-12-07T23:06:26;4.40;69.40
9820;DHT22;4949;48.482;9.206;2022-12-07T23:11:33;4.20;69.90
9820;DHT22;4949;48.482;9.206;2022-12-07T23:16:53;4.20;70.00
9820;DHT22;4949;48.482;9.206;2022-12-07T23:21:56;4.10;69.90
9820;DHT22;4949;48.482;9.206;2022-12-07T23:26:57;4.10;70.50
9820;DHT22;4949;48.482;9.206;2022-12-07T23:32:00;4.10;71.20
9820;DHT22;4949;48.482;9.206;2022-12-07T23:37:03;4.20;71.20
9820;DHT22;4949;48.482;9.206;2022-12-07T23:42:04;4.10;71.60
9820;DHT22;4949;48.482;9.206;2022-12-07T23:47:07;4.10;71.80
9820;DHT22;4949;48.482;9.206;2022-12-07T23:52:08;4.20;70.90
9820;DHT22;4949;48.482;9.206;2022-12-07T23:57:11;4.30;70.60
